createdAt,value
2022-09-17T00:03:02.304Z,11.57
2022-09-17T00:14:06.363Z,11.62
2022-09-17T00:24:22.953Z,11.63
2022-09-17T00:34:55.095Z,11.62
2022-09-17T00:45:08.977Z,11.53
2022-09-17T00:55:51.778Z,11.41
2022-09-17T01:06:43.724Z,11.35
2022-09-17T01:18:06.957Z,11.33
2022-09-17T01:29:11.618Z,11.33
2022-09-17T01:40:09.342Z,11.28
2022-09-17T01:51:14.591Z,11.23
2022-09-17T02:01:56.779Z,11.11
2022-09-17T02:13:06.802Z,11.03
2022-09-17T02:23:50.682Z,11.05
2022-09-17T02:34:40.408Z,11.04
2022-09-17T02:45:48.008Z,10.97
2022-09-17T02:56:55.628Z,10.75
2022-09-17T03:08:01.865Z,10.57
2022-09-17T03:18:08.251Z,10.51
2022-09-17T03:28:53.870Z,10.47
2022-09-17T03:39:03.198Z,10.37
2022-09-17T03:49:12.225Z,10.37
2022-09-17T03:59:36.058Z,10.38
2022-09-17T04:09:41.889Z,10.28
2022-09-17T04:20:48.586Z,10.21
2022-09-17T04:31:18.043Z,10.19
2022-09-17T04:41:52.104Z,10.16
2022-09-17T04:52:26.504Z,10.08
2022-09-17T05:02:49.865Z,10.08
2022-09-17T05:12:56.090Z,10.20
2022-09-17T05:23:35.497Z,10.40
2022-09-17T05:34:11.826Z,10.98
2022-09-17T05:44:42.628Z,12.33
2022-09-17T05:54:53.768Z,13.06
2022-09-17T06:05:58.227Z,14.17
2022-09-17T06:16:23.576Z,14.65
2022-09-17T06:26:55.228Z,14.88
2022-09-17T06:37:28.810Z,14.75
2022-09-17T06:48:07.482Z,14.76
2022-09-17T06:58:16.551Z,15.39
2022-09-17T07:08:38.267Z,15.07
2022-09-17T07:18:47.529Z,14.29
2022-09-17T07:28:56.468Z,13.78
2022-09-17T07:39:17.232Z,13.58
2022-09-17T07:49:24.061Z,13.46
2022-09-17T07:59:37.752Z,13.32
2022-09-17T08:10:02.272Z,13.21
2022-09-17T08:20:29.336Z,13.15
2022-09-17T08:30:37.781Z,13.13
2022-09-17T08:41:06.132Z,13.32
2022-09-17T08:51:26.336Z,13.59
2022-09-17T09:02:35.554Z,13.70
2022-09-17T09:12:43.506Z,13.58
2022-09-17T09:23:03.196Z,13.57
2022-09-17T09:33:59.706Z,13.93
2022-09-17T09:44:36.107Z,14.53
2022-09-17T09:55:40.088Z,14.79
2022-09-17T10:05:55.008Z,14.64
2022-09-17T10:16:56.659Z,14.82
2022-09-17T10:27:14.205Z,14.68
2022-09-17T10:37:48.051Z,14.65
2022-09-17T10:47:52.086Z,14.45
2022-09-17T10:58:23.993Z,14.15
2022-09-17T11:08:41.140Z,14.21
2022-09-17T11:19:18.879Z,14.17
2022-09-17T11:29:54.573Z,13.93
2022-09-17T11:40:12.420Z,14.06
2022-09-17T11:50:31.812Z,14.52
2022-09-17T12:00:55.780Z,14.82
2022-09-17T12:11:22.155Z,15.06
2022-09-17T12:21:38.955Z,15.11
2022-09-17T12:32:15.044Z,15.08
2022-09-17T12:43:06.210Z,15.20
2022-09-17T12:53:50.976Z,15.18
2022-09-17T13:09:05.619Z,15.13
2022-09-17T13:19:54.589Z,15.11
2022-09-17T13:30:11.807Z,15.08
2022-09-17T13:40:34.647Z,15.06
2022-09-17T13:51:50.172Z,14.95
2022-09-17T14:03:00.272Z,14.93
2022-09-17T14:13:44.390Z,14.99
2022-09-17T14:24:16.243Z,15.05
2022-09-17T14:34:40.177Z,15.11
2022-09-17T14:45:11.182Z,15.36
2022-09-17T14:55:31.517Z,15.42
2022-09-17T15:05:53.902Z,15.24
2022-09-17T15:27:18.695Z,15.03
2022-09-17T15:38:21.283Z,15.04
2022-09-17T15:48:43.079Z,14.92
2022-09-17T15:59:30.088Z,14.85
2022-09-17T16:10:45.254Z,14.70
2022-09-17T16:21:17.794Z,14.53
2022-09-17T16:31:51.697Z,14.46
2022-09-17T16:53:46.318Z,13.91
2022-09-17T17:04:28.501Z,13.68
2022-09-17T17:15:09.313Z,13.57
2022-09-17T17:25:32.510Z,13.32
2022-09-17T17:35:46.887Z,13.10
2022-09-17T17:46:24.166Z,12.81
2022-09-17T17:57:01.527Z,12.57
2022-09-17T18:07:15.941Z,12.47
2022-09-17T18:17:44.521Z,12.28
2022-09-17T18:28:30.237Z,12.17
2022-09-17T18:39:15.542Z,12.00
2022-09-17T18:49:58.773Z,11.95
2022-09-17T19:00:11.400Z,11.93
2022-09-17T19:10:26.749Z,11.98
2022-09-17T19:21:06.969Z,12.01
2022-09-17T19:31:48.326Z,12.13
2022-09-17T19:42:12.383Z,12.27
2022-09-17T19:52:56.566Z,12.23
2022-09-17T20:03:48.643Z,12.16
2022-09-17T20:14:21.823Z,12.10
2022-09-17T20:24:38.226Z,12.07
2022-09-17T20:35:24.548Z,11.94
2022-09-17T20:46:35.591Z,11.88
2022-09-17T20:56:48.395Z,11.85
2022-09-17T21:07:33.211Z,11.87
2022-09-17T21:18:15.845Z,11.76
2022-09-17T21:28:39.589Z,11.76
2022-09-17T21:38:57.834Z,11.85
2022-09-17T21:49:52.359Z,11.86
2022-09-17T22:00:09.893Z,11.89
2022-09-17T22:10:20.654Z,11.88
2022-09-17T22:20:30.453Z,11.89
2022-09-17T22:30:37.065Z,11.90
2022-09-17T22:41:27.657Z,11.82
2022-09-17T22:52:14.513Z,11.78
2022-09-17T23:02:40.886Z,11.73
2022-09-17T23:12:44.409Z,11.72
2022-09-17T23:22:52.589Z,11.73
2022-09-17T23:33:22.177Z,11.72
2022-09-17T23:43:53.871Z,11.76
2022-09-17T23:54:08.455Z,11.81
